createdAt,value
2023-05-22T00:00:02.489Z,15.02
2023-05-22T00:01:02.472Z,15.05
2023-05-22T00:02:02.499Z,15.08
2023-05-22T00:03:02.533Z,15.10
2023-05-22T00:04:02.421Z,15.11
2023-05-22T00:05:02.477Z,15.16
2023-05-22T00:06:02.367Z,15.14
2023-05-22T00:07:02.372Z,15.15
2023-05-22T00:08:02.338Z,15.17
2023-05-22T00:09:02.317Z,15.14
2023-05-22T00:10:02.297Z,15.14
2023-05-22T00:11:02.278Z,15.15
2023-05-22T00:12:02.299Z,15.15
2023-05-22T00:13:02.250Z,15.16
2023-05-22T00:14:02.266Z,15.15
2023-05-22T00:15:02.241Z,15.13
2023-05-22T00:16:02.214Z,15.08
2023-05-22T00:17:02.371Z,15.08
2023-05-22T00:18:02.250Z,15.11
2023-05-22T00:19:02.245Z,15.13
2023-05-22T00:20:02.201Z,15.15
2023-05-22T00:21:02.191Z,15.15
2023-05-22T00:22:02.194Z,15.18
2023-05-22T00:23:02.154Z,15.21
2023-05-22T00:24:02.146Z,15.23
2023-05-22T00:25:02.131Z,15.24
2023-05-22T00:26:02.121Z,15.22
2023-05-22T00:27:02.134Z,15.22
2023-05-22T00:28:02.183Z,15.20
2023-05-22T00:29:02.243Z,15.20
2023-05-22T00:30:02.391Z,15.17
2023-05-22T00:31:02.329Z,15.09
2023-05-22T00:32:02.361Z,15.07
2023-05-22T00:33:02.492Z,15.12
2023-05-22T00:34:02.534Z,15.09
2023-05-22T00:35:02.475Z,15.08
2023-05-22T00:36:02.518Z,15.06
2023-05-22T00:37:02.584Z,15.08
2023-05-22T00:38:02.609Z,15.09
2023-05-22T00:39:02.653Z,15.08
2023-05-22T00:40:02.727Z,15.07
2023-05-22T00:41:02.769Z,15.05
2023-05-22T00:42:02.810Z,15.06
2023-05-22T00:43:02.824Z,15.07
2023-05-22T00:44:02.856Z,15.07
2023-05-22T00:45:02.895Z,15.09
2023-05-22T00:46:02.975Z,15.07
2023-05-22T00:47:03.036Z,15.03
2023-05-22T00:48:03.097Z,14.99
2023-05-22T00:49:03.057Z,14.98
2023-05-22T00:50:03.117Z,14.99
2023-05-22T00:51:03.154Z,14.98
2023-05-22T00:52:03.270Z,14.98
2023-05-22T00:53:03.253Z,14.95
2023-05-22T00:54:03.279Z,14.93
2023-05-22T00:55:03.382Z,14.92
2023-05-22T00:56:03.379Z,14.92
2023-05-22T00:57:03.437Z,14.89
2023-05-22T00:58:03.494Z,14.89
2023-05-22T00:59:03.536Z,14.89
2023-05-22T01:00:03.587Z,14.86
2023-05-22T01:01:03.642Z,14.83
2023-05-22T01:02:03.872Z,14.78
2023-05-22T01:03:03.833Z,14.77
2023-05-22T01:04:03.933Z,14.77
2023-05-22T01:05:03.890Z,14.76
2023-05-22T01:06:03.932Z,14.75
2023-05-22T01:07:03.996Z,14.73
2023-05-22T01:08:04.090Z,14.74
2023-05-22T01:09:04.078Z,14.73
2023-05-22T01:10:04.145Z,14.68
2023-05-22T01:11:04.192Z,14.67
2023-05-22T01:12:04.219Z,14.70
2023-05-22T01:13:04.297Z,14.71
2023-05-22T01:14:04.335Z,14.71
2023-05-22T01:15:04.385Z,14.74
2023-05-22T01:16:04.473Z,14.72
2023-05-22T01:17:04.485Z,14.63
2023-05-22T01:18:04.620Z,14.62
2023-05-22T01:19:04.658Z,14.58
2023-05-22T01:20:04.632Z,14.57
2023-05-22T01:21:04.701Z,14.57
2023-05-22T01:22:04.759Z,14.59
2023-05-22T01:23:04.803Z,14.61
2023-05-22T01:24:04.859Z,14.60
2023-05-22T01:25:04.931Z,14.58
2023-05-22T01:26:04.990Z,14.55
2023-05-22T01:27:05.015Z,14.55
2023-05-22T01:28:05.099Z,14.50
2023-05-22T01:29:05.139Z,14.51
2023-05-22T01:30:05.220Z,14.48
2023-05-22T01:31:05.264Z,14.46
2023-05-22T01:32:05.334Z,14.46
2023-05-22T01:33:05.435Z,14.45
2023-05-22T01:34:05.495Z,14.37
2023-05-22T01:35:05.430Z,14.36
2023-05-22T01:36:05.451Z,14.37
2023-05-22T01:37:05.474Z,14.39
2023-05-22T01:38:05.480Z,14.38
2023-05-22T01:39:05.525Z,14.40
2023-05-22T01:40:05.527Z,14.37
2023-05-22T01:41:05.535Z,14.33
2023-05-22T01:42:05.548Z,14.31
2023-05-22T01:43:05.577Z,14.30
2023-05-22T01:44:05.619Z,14.28
2023-05-22T01:45:05.615Z,14.29
2023-05-22T01:46:05.666Z,14.26
2023-05-22T01:47:05.703Z,14.23
2023-05-22T01:48:05.759Z,14.21
2023-05-22T01:49:05.727Z,14.24
2023-05-22T01:50:05.885Z,14.26
2023-05-22T01:51:05.769Z,14.19
2023-05-22T01:52:05.826Z,14.19
2023-05-22T01:53:05.851Z,14.20
2023-05-22T01:54:05.878Z,14.21
2023-05-22T01:55:05.898Z,14.18
2023-05-22T01:56:05.927Z,14.16
2023-05-22T01:57:05.952Z,14.17
2023-05-22T01:58:05.947Z,14.14
2023-05-22T01:59:05.967Z,14.15
2023-05-22T02:00:05.972Z,14.18
2023-05-22T02:01:06.024Z,14.18
2023-05-22T02:02:06.070Z,14.16
2023-05-22T02:03:06.108Z,14.18
2023-05-22T02:04:06.022Z,14.18
2023-05-22T02:05:06.047Z,14.14
2023-05-22T02:06:06.069Z,14.13
2023-05-22T02:07:06.036Z,14.05
2023-05-22T02:08:06.053Z,14.08
2023-05-22T02:09:06.063Z,14.09
2023-05-22T02:10:06.093Z,14.11
2023-05-22T02:11:06.094Z,14.13
2023-05-22T02:12:06.089Z,14.13
2023-05-22T02:13:06.098Z,14.15
2023-05-22T02:14:06.093Z,14.12
2023-05-22T02:15:06.106Z,14.12
2023-05-22T02:16:06.141Z,14.14
2023-05-22T02:17:06.122Z,14.17
2023-05-22T02:18:06.195Z,14.14
2023-05-22T02:19:06.194Z,14.09
2023-05-22T02:20:06.108Z,14.08
2023-05-22T02:21:06.128Z,14.02
2023-05-22T02:22:06.162Z,13.98
2023-05-22T02:23:06.171Z,14.00
2023-05-22T02:24:06.166Z,14.02
2023-05-22T02:25:06.187Z,14.04
2023-05-22T02:26:06.186Z,14.05
2023-05-22T02:27:06.202Z,13.99
2023-05-22T02:28:06.254Z,13.97
2023-05-22T02:29:06.247Z,13.97
2023-05-22T02:30:06.261Z,13.98
2023-05-22T02:31:06.305Z,13.96
2023-05-22T02:32:06.310Z,13.96
2023-05-22T02:33:06.458Z,13.94
2023-05-22T02:34:06.348Z,13.94
2023-05-22T02:35:06.362Z,13.93
2023-05-22T02:36:06.436Z,13.93
2023-05-22T02:37:06.408Z,13.92
2023-05-22T02:38:06.453Z,13.86
2023-05-22T02:39:06.435Z,13.86
2023-05-22T02:40:06.577Z,13.81
2023-05-22T02:41:06.534Z,13.81
2023-05-22T02:42:06.544Z,13.80
2023-05-22T02:43:06.582Z,13.80
2023-05-22T02:44:06.614Z,13.79
2023-05-22T02:45:06.640Z,13.74
2023-05-22T02:46:06.725Z,13.72
2023-05-22T02:47:06.773Z,13.75
2023-05-22T02:48:06.874Z,13.75
2023-05-22T02:49:06.851Z,13.79
2023-05-22T02:50:06.883Z,13.82
2023-05-22T02:51:06.908Z,13.82
2023-05-22T02:52:06.938Z,13.83
2023-05-22T02:53:06.981Z,13.83
2023-05-22T02:54:07.044Z,13.82
2023-05-22T02:55:07.037Z,13.82
2023-05-22T02:56:07.049Z,13.77
2023-05-22T02:57:07.071Z,13.76
2023-05-22T02:58:07.092Z,13.69
2023-05-22T02:59:07.079Z,13.65
2023-05-22T03:00:07.094Z,13.60
2023-05-22T03:01:07.111Z,13.58
2023-05-22T03:02:07.152Z,13.57
2023-05-22T03:03:07.176Z,13.56
2023-05-22T03:04:07.217Z,13.59
2023-05-22T03:05:07.108Z,13.65
2023-05-22T03:06:07.098Z,13.66
2023-05-22T03:07:07.096Z,13.69
2023-05-22T03:08:07.085Z,13.65
2023-05-22T03:09:07.091Z,13.69
2023-05-22T03:10:07.146Z,13.73
2023-05-22T03:11:07.113Z,13.70
2023-05-22T03:12:07.137Z,13.72
2023-05-22T03:13:07.187Z,13.68
2023-05-22T03:14:07.218Z,13.70
2023-05-22T03:15:07.267Z,13.71
2023-05-22T03:16:07.328Z,13.70
2023-05-22T03:17:07.365Z,13.70
2023-05-22T03:18:07.429Z,13.73
2023-05-22T03:19:07.502Z,13.76
2023-05-22T03:20:07.548Z,13.71
2023-05-22T03:21:07.541Z,13.67
2023-05-22T03:22:07.587Z,13.65
2023-05-22T03:23:07.630Z,13.61
2023-05-22T03:24:07.695Z,13.60
2023-05-22T03:25:07.712Z,13.54
2023-05-22T03:26:07.806Z,13.54
2023-05-22T03:27:07.841Z,13.56
2023-05-22T03:28:07.871Z,13.58
2023-05-22T03:29:07.964Z,13.61
2023-05-22T03:30:08.002Z,13.60
2023-05-22T03:31:08.028Z,13.62
2023-05-22T03:32:08.104Z,13.59
2023-05-22T03:33:08.226Z,13.61
2023-05-22T03:34:08.325Z,13.53
2023-05-22T03:35:08.300Z,13.53
2023-05-22T03:36:08.352Z,13.53
2023-05-22T03:37:08.396Z,13.54
2023-05-22T03:38:08.468Z,13.55
2023-05-22T03:39:08.529Z,13.57
2023-05-22T03:40:08.596Z,13.59
2023-05-22T03:41:08.671Z,13.58
2023-05-22T03:42:08.690Z,13.54
2023-05-22T03:43:08.712Z,13.55
2023-05-22T03:44:08.766Z,13.57
2023-05-22T03:45:08.813Z,13.58
2023-05-22T03:46:08.950Z,13.62
2023-05-22T03:47:08.861Z,13.64
2023-05-22T03:48:08.935Z,13.66
2023-05-22T03:49:08.888Z,13.65
2023-05-22T03:50:08.897Z,13.64
2023-05-22T03:51:08.917Z,13.67
2023-05-22T03:52:08.921Z,13.71
2023-05-22T03:53:08.963Z,13.72
2023-05-22T03:54:08.974Z,13.76
2023-05-22T03:55:08.972Z,13.81
2023-05-22T03:56:08.990Z,13.84
2023-05-22T03:57:08.995Z,13.87
2023-05-22T03:58:09.027Z,13.91
2023-05-22T03:59:09.035Z,13.94
2023-05-22T04:00:09.077Z,13.95
2023-05-22T04:01:09.104Z,13.97
2023-05-22T04:02:09.126Z,13.99
2023-05-22T04:03:09.224Z,13.99
2023-05-22T04:04:09.237Z,14.04
2023-05-22T04:05:09.259Z,14.08
2023-05-22T04:06:09.283Z,14.10
2023-05-22T04:07:09.332Z,14.13
2023-05-22T04:08:09.413Z,14.18
2023-05-22T04:09:09.461Z,14.25
2023-05-22T04:10:09.526Z,14.27
2023-05-22T04:11:09.605Z,14.28
2023-05-22T04:12:09.662Z,14.32
2023-05-22T04:13:09.731Z,14.34
2023-05-22T04:14:09.827Z,14.41
2023-05-22T04:15:09.849Z,14.50
2023-05-22T04:16:09.930Z,14.60
2023-05-22T04:17:09.917Z,14.71
2023-05-22T04:18:10.019Z,14.84
2023-05-22T04:19:10.046Z,15.00
2023-05-22T04:20:10.034Z,15.15
2023-05-22T04:21:10.080Z,15.26
2023-05-22T04:22:10.152Z,15.44
2023-05-22T04:23:10.068Z,15.64
2023-05-22T04:24:10.040Z,15.85
2023-05-22T04:25:10.019Z,16.07
2023-05-22T04:26:10.040Z,16.32
2023-05-22T04:27:10.080Z,16.58
2023-05-22T04:28:10.013Z,16.83
2023-05-22T04:29:09.978Z,17.12
2023-05-22T04:30:09.956Z,17.38
2023-05-22T04:31:09.995Z,17.66
2023-05-22T04:32:09.915Z,17.94
2023-05-22T04:33:09.950Z,18.19
2023-05-22T04:34:09.890Z,18.40
2023-05-22T04:35:09.867Z,18.61
2023-05-22T04:36:12.356Z,18.71
2023-05-22T04:37:09.795Z,18.74
2023-05-22T04:38:09.735Z,18.76
2023-05-22T04:39:09.674Z,18.68
2023-05-22T04:40:09.626Z,18.76
2023-05-22T04:41:09.603Z,18.87
2023-05-22T04:42:09.530Z,18.96
2023-05-22T04:43:09.487Z,19.01
2023-05-22T04:44:09.424Z,19.06
2023-05-22T04:45:09.354Z,19.14
2023-05-22T04:46:09.408Z,19.23
2023-05-22T04:47:09.340Z,19.23
2023-05-22T04:48:09.561Z,19.15
2023-05-22T04:49:09.111Z,19.07
2023-05-22T04:50:09.062Z,18.94
2023-05-22T04:51:09.034Z,18.95
2023-05-22T04:52:08.989Z,19.02
2023-05-22T04:53:08.932Z,19.09
2023-05-22T04:54:08.842Z,19.09
2023-05-22T04:55:08.799Z,19.10
2023-05-22T04:56:08.775Z,19.01
2023-05-22T04:57:08.683Z,19.03
2023-05-22T04:58:08.642Z,19.00
2023-05-22T04:59:08.569Z,19.07
2023-05-22T05:00:08.519Z,19.12
2023-05-22T05:01:08.460Z,19.23
2023-05-22T05:02:08.497Z,19.31
2023-05-22T05:03:08.577Z,19.34
2023-05-22T05:04:08.356Z,19.36
2023-05-22T05:05:08.219Z,19.34
2023-05-22T05:06:08.116Z,19.30
2023-05-22T05:07:08.042Z,19.34
2023-05-22T05:08:07.971Z,19.33
2023-05-22T05:09:07.902Z,18.81
2023-05-22T05:10:07.850Z,18.72
2023-05-22T05:11:07.752Z,18.29
2023-05-22T05:12:07.738Z,18.18
2023-05-22T05:13:07.592Z,18.29
2023-05-22T05:14:07.604Z,18.19
2023-05-22T05:15:07.440Z,18.05
2023-05-22T05:16:07.386Z,17.67
2023-05-22T05:17:07.286Z,17.45
2023-05-22T05:18:07.441Z,17.43
2023-05-22T05:19:07.202Z,17.42
2023-05-22T05:20:07.078Z,17.29
2023-05-22T05:21:07.013Z,17.30
2023-05-22T05:22:06.921Z,17.23
2023-05-22T05:23:07.085Z,17.31
2023-05-22T05:24:06.862Z,17.43
2023-05-22T05:25:06.792Z,17.50
2023-05-22T05:26:06.732Z,17.72
2023-05-22T05:27:06.720Z,17.85
2023-05-22T05:28:06.679Z,17.55
2023-05-22T05:29:06.663Z,17.66
2023-05-22T05:30:06.666Z,17.59
2023-05-22T05:31:07.168Z,17.76
2023-05-22T05:32:06.680Z,17.82
2023-05-22T05:33:07.162Z,17.70
2023-05-22T05:34:06.601Z,17.58
2023-05-22T05:35:06.532Z,17.47
2023-05-22T05:36:06.524Z,17.55
2023-05-22T05:37:06.496Z,17.64
2023-05-22T05:38:06.456Z,17.47
2023-05-22T05:39:06.472Z,17.42
2023-05-22T05:40:06.433Z,17.62
2023-05-22T05:41:06.407Z,17.54
2023-05-22T05:42:06.420Z,17.50
2023-05-22T05:43:08.052Z,17.43
2023-05-22T05:44:06.297Z,17.43
2023-05-22T05:45:06.583Z,17.47
2023-05-22T05:46:06.205Z,17.57
2023-05-22T05:47:06.086Z,17.58
2023-05-22T05:48:13.526Z,17.41
2023-05-22T05:49:05.970Z,17.34
2023-05-22T05:50:06.211Z,17.45
2023-05-22T05:51:05.807Z,17.49
2023-05-22T05:52:05.747Z,17.49
2023-05-22T05:53:06.111Z,17.54
2023-05-22T05:54:05.622Z,17.54
2023-05-22T05:55:05.552Z,17.48
2023-05-22T05:56:05.625Z,17.45
2023-05-22T05:57:05.449Z,17.39
2023-05-22T05:58:05.417Z,17.32
2023-05-22T05:59:05.349Z,17.27
2023-05-22T06:00:20.856Z,17.41
2023-05-22T06:01:07.329Z,17.54
2023-05-22T06:02:20.855Z,17.56
2023-05-22T06:03:06.105Z,17.42
2023-05-22T06:04:20.595Z,17.30
2023-05-22T06:06:20.605Z,17.17
2023-05-22T06:07:04.812Z,17.26
2023-05-22T06:09:08.121Z,17.35
2023-05-22T06:10:12.852Z,17.50
2023-05-22T06:11:20.393Z,17.73
2023-05-22T06:12:07.673Z,17.80
2023-05-22T06:13:04.400Z,17.97
2023-05-22T06:14:04.424Z,17.97
2023-05-22T06:15:11.998Z,18.13
2023-05-22T06:16:19.893Z,18.29
2023-05-22T06:17:04.629Z,18.39
2023-05-22T06:18:04.226Z,18.48
2023-05-22T06:19:05.157Z,18.42
2023-05-22T06:20:04.062Z,18.47
2023-05-22T06:21:05.979Z,18.63
2023-05-22T06:22:04.208Z,18.71
2023-05-22T06:23:03.683Z,18.87
2023-05-22T06:24:03.626Z,19.02
2023-05-22T06:25:03.552Z,19.14
2023-05-22T06:26:03.478Z,19.23
2023-05-22T06:27:03.624Z,19.32
2023-05-22T06:28:03.346Z,19.40
2023-05-22T06:29:03.276Z,19.49
2023-05-22T06:30:04.590Z,19.40
2023-05-22T06:31:03.367Z,19.34
2023-05-22T06:32:03.666Z,19.45
2023-05-22T06:33:03.388Z,19.52
2023-05-22T06:34:03.369Z,19.64
2023-05-22T06:35:03.456Z,19.70
2023-05-22T06:36:03.304Z,19.47
2023-05-22T06:37:03.775Z,19.33
2023-05-22T06:38:03.460Z,19.35
2023-05-22T06:39:03.261Z,19.53
2023-05-22T06:40:10.620Z,19.68
2023-05-22T06:41:03.136Z,19.79
2023-05-22T06:42:03.552Z,19.79
2023-05-22T06:43:03.007Z,19.90
2023-05-22T06:44:06.115Z,19.99
2023-05-22T06:45:02.862Z,20.07
2023-05-22T06:46:02.815Z,20.15
2023-05-22T06:47:02.708Z,20.17
2023-05-22T06:48:06.387Z,20.24
2023-05-22T06:49:03.581Z,20.30
2023-05-22T06:50:02.935Z,20.37
2023-05-22T06:51:02.425Z,20.44
2023-05-22T06:52:05.216Z,20.47
2023-05-22T06:53:05.471Z,20.47
2023-05-22T06:54:02.267Z,20.54
2023-05-22T06:55:04.289Z,20.59
2023-05-22T06:56:04.107Z,20.58
2023-05-22T06:57:02.205Z,20.60
2023-05-22T06:58:02.768Z,20.46
2023-05-22T06:59:00.934Z,20.47
2023-05-22T07:00:02.355Z,20.51
2023-05-22T07:01:01.983Z,20.60
2023-05-22T07:02:01.577Z,20.65
2023-05-22T07:03:01.728Z,20.76
2023-05-22T07:04:01.445Z,20.85
2023-05-22T07:05:02.661Z,20.94
2023-05-22T07:06:01.257Z,20.76
2023-05-22T07:07:01.183Z,20.85
2023-05-22T07:08:01.149Z,20.97
2023-05-22T07:09:01.188Z,21.07
2023-05-22T07:10:01.430Z,21.15
2023-05-22T07:11:02.332Z,21.21
2023-05-22T07:12:00.783Z,21.26
2023-05-22T07:13:01.170Z,21.24
2023-05-22T07:14:00.587Z,21.27
2023-05-22T07:15:00.522Z,21.25
2023-05-22T07:16:00.515Z,21.35
2023-05-22T07:17:01.572Z,21.37
2023-05-22T07:18:00.427Z,21.44
2023-05-22T07:19:00.301Z,21.52
2023-05-22T07:20:00.227Z,21.64
2023-05-22T07:21:00.168Z,21.71
2023-05-22T07:22:00.183Z,21.81
2023-05-22T07:23:00.161Z,21.91
2023-05-22T07:23:59.971Z,22.00
2023-05-22T07:24:59.935Z,22.06
2023-05-22T07:26:03.342Z,22.10
2023-05-22T07:26:59.834Z,22.11
2023-05-22T07:28:01.123Z,22.07
2023-05-22T07:28:59.641Z,22.10
2023-05-22T07:29:59.548Z,22.10
2023-05-22T07:31:00.455Z,22.11
2023-05-22T07:31:59.469Z,22.11
2023-05-22T07:32:59.699Z,22.19
2023-05-22T07:34:00.129Z,22.25
2023-05-22T07:34:59.329Z,22.36
2023-05-22T07:35:59.284Z,22.44
2023-05-22T07:37:02.455Z,22.50
2023-05-22T07:37:59.372Z,22.57
2023-05-22T07:39:02.289Z,22.58
2023-05-22T07:39:59.895Z,22.57
2023-05-22T07:40:58.793Z,22.62
2023-05-22T07:42:30.743Z,22.72
2023-05-22T07:42:59.366Z,22.79
2023-05-22T07:44:06.042Z,22.70
2023-05-22T07:45:00.491Z,22.73
2023-05-22T07:45:59.829Z,22.82
2023-05-22T07:47:05.771Z,22.89
2023-05-22T07:47:58.669Z,22.94
2023-05-22T07:49:01.332Z,23.06
2023-05-22T07:49:58.505Z,23.15
2023-05-22T07:50:57.930Z,23.28
2023-05-22T07:52:05.188Z,23.28
2023-05-22T07:53:00.873Z,23.31
2023-05-22T07:54:04.958Z,23.40
2023-05-22T07:54:57.648Z,23.47
2023-05-22T07:56:00.497Z,23.58
2023-05-22T07:56:57.193Z,23.70
2023-05-22T07:57:57.389Z,23.78
2023-05-22T07:58:57.157Z,23.80
2023-05-22T07:59:56.875Z,23.89
2023-05-22T08:00:56.693Z,24.01
2023-05-22T08:01:58.160Z,24.04
2023-05-22T08:02:56.766Z,24.12
2023-05-22T08:03:56.922Z,24.27
2023-05-22T08:04:56.697Z,24.36
2023-05-22T08:05:56.058Z,24.21
2023-05-22T08:06:55.943Z,24.31
2023-05-22T08:07:55.804Z,24.43
2023-05-22T08:08:56.146Z,24.32
2023-05-22T08:09:55.540Z,24.38
2023-05-22T08:11:04.159Z,24.47
2023-05-22T08:11:55.279Z,24.65
2023-05-22T08:12:55.154Z,24.75
2023-05-22T08:13:55.164Z,24.94
2023-05-22T08:14:55.067Z,25.09
2023-05-22T08:16:00.288Z,25.23
2023-05-22T08:16:54.686Z,25.30
2023-05-22T08:17:54.493Z,25.41
2023-05-22T08:18:54.698Z,25.52
2023-05-22T08:19:54.233Z,25.64
2023-05-22T08:20:54.963Z,25.78
2023-05-22T08:21:53.924Z,25.92
2023-05-22T08:22:54.692Z,26.02
2023-05-22T08:23:53.639Z,26.16
2023-05-22T08:24:53.426Z,26.30
2023-05-22T08:25:53.331Z,26.41
2023-05-22T08:26:53.146Z,26.58
2023-05-22T08:27:52.996Z,26.58
2023-05-22T08:28:53.145Z,26.64
2023-05-22T08:29:52.855Z,26.65
2023-05-22T08:30:52.528Z,26.58
2023-05-22T08:31:52.487Z,26.34
2023-05-22T08:32:52.668Z,26.51
2023-05-22T08:33:52.184Z,26.82
2023-05-22T08:34:51.882Z,27.04
2023-05-22T08:35:51.705Z,27.14
2023-05-22T08:36:51.583Z,27.34
2023-05-22T08:37:51.413Z,27.37
2023-05-22T08:38:51.675Z,27.59
2023-05-22T08:39:58.583Z,27.57
2023-05-22T08:40:51.212Z,27.69
2023-05-22T08:41:49.837Z,27.95
2023-05-22T08:42:51.660Z,28.05
2023-05-22T08:43:50.659Z,28.23
2023-05-22T08:44:50.316Z,28.39
2023-05-22T08:45:50.310Z,28.57
2023-05-22T08:46:49.983Z,28.45
2023-05-22T08:47:50.151Z,28.56
2023-05-22T08:48:49.633Z,28.53
2023-05-22T08:49:49.453Z,28.47
2023-05-22T08:50:49.325Z,28.63
2023-05-22T08:51:49.168Z,28.86
2023-05-22T08:52:49.169Z,28.99
2023-05-22T08:53:48.890Z,29.15
2023-05-22T08:54:48.717Z,29.27
2023-05-22T08:55:48.560Z,29.22
2023-05-22T08:56:56.283Z,29.24
2023-05-22T08:57:48.654Z,28.94
2023-05-22T08:58:48.038Z,29.03
2023-05-22T08:59:47.862Z,29.21
2023-05-22T09:00:47.719Z,29.25
2023-05-22T09:01:47.582Z,29.32
2023-05-22T09:02:47.701Z,29.42
2023-05-22T09:03:47.678Z,29.54
2023-05-22T09:04:46.972Z,29.70
2023-05-22T09:05:46.770Z,29.84
2023-05-22T09:06:46.660Z,29.91
2023-05-22T09:07:46.661Z,29.80
2023-05-22T09:08:46.224Z,29.78
2023-05-22T09:09:46.174Z,29.69
2023-05-22T09:10:45.854Z,29.38
2023-05-22T09:11:46.162Z,29.49
2023-05-22T09:12:45.484Z,29.59
2023-05-22T09:13:45.302Z,29.52
2023-05-22T09:14:45.112Z,29.64
2023-05-22T09:15:44.923Z,29.82
2023-05-22T09:16:44.768Z,29.81
2023-05-22T09:17:44.623Z,29.92
2023-05-22T09:18:44.413Z,29.91
2023-05-22T09:19:44.121Z,30.07
2023-05-22T09:20:44.162Z,30.04
2023-05-22T09:21:44.250Z,30.07
2023-05-22T09:22:43.553Z,30.17
2023-05-22T09:23:43.344Z,30.30
2023-05-22T09:24:43.241Z,30.27
2023-05-22T09:25:43.109Z,30.31
2023-05-22T09:26:43.313Z,30.39
2023-05-22T09:27:43.658Z,30.45
2023-05-22T09:28:42.667Z,30.57
2023-05-22T09:29:42.223Z,30.66
2023-05-22T09:30:42.439Z,30.59
2023-05-22T09:31:45.332Z,30.71
2023-05-22T09:32:41.768Z,30.81
2023-05-22T09:33:41.691Z,30.74
2023-05-22T09:35:13.038Z,30.27
2023-05-22T09:35:44.379Z,30.11
2023-05-22T09:36:40.852Z,30.35
2023-05-22T09:37:40.619Z,30.51
2023-05-22T09:38:40.451Z,30.58
2023-05-22T09:39:40.247Z,30.66
2023-05-22T09:40:40.441Z,30.82
2023-05-22T09:41:43.009Z,30.94
2023-05-22T09:42:39.619Z,31.06
2023-05-22T09:43:39.685Z,31.15
2023-05-22T09:44:39.220Z,31.30
2023-05-22T09:45:42.226Z,31.31
2023-05-22T09:46:39.303Z,31.05
2023-05-22T09:47:38.710Z,31.15
2023-05-22T09:48:38.453Z,31.22
2023-05-22T09:49:38.292Z,31.19
2023-05-22T09:50:38.236Z,31.18
2023-05-22T09:51:37.887Z,31.26
2023-05-22T09:52:37.652Z,31.25
2023-05-22T09:53:37.682Z,31.24
2023-05-22T09:54:37.269Z,31.23
2023-05-22T09:55:37.060Z,31.22
2023-05-22T09:56:39.874Z,31.21
2023-05-22T09:57:36.935Z,31.13
2023-05-22T09:58:36.491Z,31.14
2023-05-22T09:59:36.316Z,30.92
2023-05-22T10:00:36.073Z,30.86
2023-05-22T10:01:35.972Z,30.92
2023-05-22T10:02:35.756Z,30.83
2023-05-22T10:03:35.686Z,30.81
2023-05-22T10:04:35.353Z,30.80
2023-05-22T10:05:35.193Z,30.79
2023-05-22T10:06:34.929Z,30.78
2023-05-22T10:07:34.734Z,30.72
2023-05-22T10:08:34.701Z,30.67
2023-05-22T10:09:34.776Z,30.64
2023-05-22T10:10:34.194Z,30.31
2023-05-22T10:11:34.019Z,30.29
2023-05-22T10:12:33.790Z,30.30
2023-05-22T10:13:33.686Z,30.39
2023-05-22T10:14:33.784Z,30.48
2023-05-22T10:15:33.249Z,30.58
2023-05-22T10:16:33.103Z,30.64
2023-05-22T10:17:32.883Z,30.64
2023-05-22T10:18:33.694Z,30.58
2023-05-22T10:19:32.509Z,30.61
2023-05-22T10:20:32.287Z,30.56
2023-05-22T10:21:32.258Z,30.58
2023-05-22T10:22:32.005Z,30.60
2023-05-22T10:23:32.195Z,30.59
2023-05-22T10:24:31.779Z,30.51
2023-05-22T10:25:31.705Z,30.56
2023-05-22T10:26:31.286Z,30.66
2023-05-22T10:27:31.089Z,30.57
2023-05-22T10:28:31.212Z,30.41
2023-05-22T10:29:30.759Z,30.42
2023-05-22T10:30:30.580Z,30.46
2023-05-22T10:31:30.383Z,30.57
2023-05-22T10:32:30.728Z,30.65
2023-05-22T10:33:30.059Z,30.44
2023-05-22T10:34:29.830Z,30.43
2023-05-22T10:35:29.624Z,30.35
2023-05-22T10:36:29.431Z,30.24
2023-05-22T10:37:29.403Z,30.27
2023-05-22T10:38:29.202Z,30.35
2023-05-22T10:39:28.937Z,30.42
2023-05-22T10:40:29.334Z,30.43
2023-05-22T10:41:28.560Z,30.42
2023-05-22T10:42:28.346Z,30.49
2023-05-22T10:43:28.177Z,30.53
2023-05-22T10:44:28.025Z,30.55
2023-05-22T10:45:27.907Z,30.50
2023-05-22T10:46:27.749Z,30.56
2023-05-22T10:47:27.531Z,30.52
2023-05-22T10:48:27.721Z,30.44
2023-05-22T10:49:27.214Z,30.52
2023-05-22T10:50:27.020Z,30.47
2023-05-22T10:51:26.829Z,30.31
2023-05-22T10:52:26.663Z,29.94
2023-05-22T10:53:26.846Z,29.57
2023-05-22T10:54:26.376Z,29.62
2023-05-22T10:55:26.233Z,29.85
2023-05-22T10:56:26.099Z,29.83
2023-05-22T10:57:25.989Z,29.91
2023-05-22T10:58:26.210Z,30.02
2023-05-22T10:59:26.644Z,30.18
2023-05-22T11:00:25.474Z,30.07
2023-05-22T11:01:25.275Z,30.15
2023-05-22T11:02:40.794Z,30.13
2023-05-22T11:03:25.273Z,30.11
2023-05-22T11:04:25.263Z,30.08
2023-05-22T11:05:24.561Z,30.02
2023-05-22T11:06:25.361Z,29.97
2023-05-22T11:07:24.199Z,29.84
2023-05-22T11:08:24.218Z,29.67
2023-05-22T11:10:23.776Z,29.65
2023-05-22T11:11:23.518Z,29.61
2023-05-22T11:12:23.320Z,29.57
2023-05-22T11:13:23.237Z,29.45
2023-05-22T11:14:23.223Z,29.44
2023-05-22T11:15:22.788Z,29.42
2023-05-22T11:16:22.721Z,29.47
2023-05-22T11:17:22.447Z,29.48
2023-05-22T11:18:22.304Z,29.47
2023-05-22T11:19:24.048Z,29.42
2023-05-22T11:20:21.939Z,29.45
2023-05-22T11:21:21.791Z,29.45
2023-05-22T11:22:21.595Z,29.49
2023-05-22T11:23:21.741Z,29.53
2023-05-22T11:24:21.756Z,29.61
2023-05-22T11:25:21.076Z,29.68
2023-05-22T11:26:21.041Z,29.75
2023-05-22T11:27:20.703Z,29.77
2023-05-22T11:28:21.507Z,29.70
2023-05-22T11:29:21.050Z,29.61
2023-05-22T11:30:20.166Z,29.63
2023-05-22T11:31:20.051Z,29.65
2023-05-22T11:32:19.806Z,29.73
2023-05-22T11:33:19.751Z,29.58
2023-05-22T11:34:19.504Z,29.63
2023-05-22T11:35:19.274Z,29.64
2023-05-22T11:36:19.075Z,29.60
2023-05-22T11:37:18.915Z,29.56
2023-05-22T11:38:18.742Z,29.59
2023-05-22T11:39:18.532Z,29.66
2023-05-22T11:40:18.351Z,29.73
2023-05-22T11:41:18.165Z,29.73
2023-05-22T11:42:18.102Z,29.70
2023-05-22T11:43:17.802Z,29.66
2023-05-22T11:44:17.636Z,29.65
2023-05-22T11:45:17.411Z,29.66
2023-05-22T11:46:17.274Z,29.60
2023-05-22T11:47:17.053Z,29.63
2023-05-22T11:48:16.955Z,29.68
2023-05-22T11:49:16.759Z,29.63
2023-05-22T11:50:22.498Z,29.60
2023-05-22T11:51:16.418Z,29.59
2023-05-22T11:52:16.157Z,29.49
2023-05-22T11:53:16.029Z,29.41
2023-05-22T11:54:15.842Z,29.26
2023-05-22T11:55:15.707Z,29.24
2023-05-22T11:56:15.587Z,29.26
2023-05-22T11:57:15.366Z,29.32
2023-05-22T11:58:15.364Z,29.36
2023-05-22T11:59:15.029Z,29.40
2023-05-22T12:00:14.941Z,29.43
2023-05-22T12:01:14.722Z,29.43
2023-05-22T12:02:14.744Z,29.41
2023-05-22T12:03:14.420Z,29.45
2023-05-22T12:04:14.262Z,29.48
2023-05-22T12:05:14.008Z,29.49
2023-05-22T12:06:16.429Z,29.53
2023-05-22T12:07:13.744Z,29.55
2023-05-22T12:08:13.764Z,29.45
2023-05-22T12:09:13.401Z,29.33
2023-05-22T12:10:13.940Z,29.27
2023-05-22T12:11:28.704Z,29.28
2023-05-22T12:12:13.272Z,29.28
2023-05-22T12:13:15.997Z,29.27
2023-05-22T12:14:12.800Z,29.28
2023-05-22T12:15:12.502Z,29.20
2023-05-22T12:16:12.493Z,29.10
2023-05-22T12:17:12.229Z,28.98
2023-05-22T12:18:12.107Z,29.00
2023-05-22T12:19:12.318Z,29.09
2023-05-22T12:20:11.772Z,29.02
2023-05-22T12:21:11.610Z,29.06
2023-05-22T12:22:11.560Z,29.02
2023-05-22T12:23:11.309Z,29.08
2023-05-22T12:24:11.250Z,29.04
2023-05-22T12:25:11.083Z,28.88
2023-05-22T12:26:10.899Z,28.90
2023-05-22T12:27:10.915Z,28.94
2023-05-22T12:28:10.628Z,28.93
2023-05-22T12:29:10.740Z,28.90
2023-05-22T12:30:10.556Z,28.75
2023-05-22T12:31:10.285Z,28.66
2023-05-22T12:32:10.085Z,28.70
2023-05-22T12:33:10.283Z,28.80
2023-05-22T12:34:09.814Z,28.91
2023-05-22T12:35:09.664Z,28.97
2023-05-22T12:36:09.524Z,28.84
2023-05-22T12:37:09.396Z,28.75
2023-05-22T12:38:09.751Z,28.81
2023-05-22T12:39:09.165Z,28.90
2023-05-22T12:40:08.968Z,28.98
2023-05-22T12:41:08.875Z,28.99
2023-05-22T12:42:08.818Z,29.00
2023-05-22T12:43:08.570Z,29.10
2023-05-22T12:48:05.354Z,29.00
2023-05-22T12:49:06.282Z,28.94
2023-05-22T12:50:06.204Z,28.91
2023-05-22T12:51:06.212Z,28.89
2023-05-22T12:52:06.212Z,28.83
2023-05-22T12:53:06.404Z,28.70
2023-05-22T12:54:06.233Z,28.70
2023-05-22T12:55:06.225Z,28.80
2023-05-22T12:56:06.193Z,28.76
2023-05-22T12:57:06.151Z,28.51
2023-05-22T12:58:06.635Z,28.49